createdAt,value
2018-12-23T00:01:20.315Z,91.75
2018-12-23T00:03:49.568Z,91.80
2018-12-23T00:06:19.047Z,91.82
2018-12-23T00:08:48.337Z,91.39
2018-12-23T00:11:17.731Z,92.01
2018-12-23T00:13:46.976Z,90.72
2018-12-23T00:16:16.322Z,90.90
2018-12-23T00:18:45.600Z,90.92
2018-12-23T00:21:14.930Z,91.43
2018-12-23T00:23:44.158Z,91.56
2018-12-23T00:26:13.428Z,91.00
2018-12-23T00:28:42.683Z,91.04
2018-12-23T00:31:12.122Z,91.01
2018-12-23T00:33:41.401Z,90.85
2018-12-23T00:36:10.795Z,90.91
2018-12-23T00:38:40.093Z,90.87
2018-12-23T00:41:09.425Z,90.66
2018-12-23T00:43:38.897Z,90.98
2018-12-23T00:46:08.256Z,91.25
2018-12-23T00:48:37.577Z,89.72
2018-12-23T00:51:06.873Z,89.33
2018-12-23T00:53:36.292Z,88.34
2018-12-23T00:56:05.976Z,88.62
2018-12-23T00:58:36.412Z,88.57
2018-12-23T01:01:05.796Z,88.45
2018-12-23T01:03:35.338Z,87.73
2018-12-23T01:06:04.681Z,88.31
2018-12-23T01:08:34.088Z,88.05
2018-12-23T01:11:03.359Z,88.02
2018-12-23T01:13:32.649Z,87.78
2018-12-23T01:16:01.888Z,87.67
2018-12-23T01:18:31.265Z,88.94
2018-12-23T01:21:00.579Z,87.75
2018-12-23T01:23:29.880Z,87.93
2018-12-23T01:25:59.160Z,88.10
2018-12-23T01:28:28.469Z,88.40
2018-12-23T01:30:57.752Z,88.82
2018-12-23T01:33:27.041Z,88.50
2018-12-23T01:35:56.319Z,88.90
2018-12-23T01:38:25.580Z,89.95
2018-12-23T01:40:54.952Z,89.54
2018-12-23T01:43:24.284Z,89.82
2018-12-23T01:45:53.631Z,90.59
2018-12-23T01:48:22.996Z,91.12
2018-12-23T01:50:52.261Z,92.01
2018-12-23T01:53:21.512Z,91.17
2018-12-23T01:55:50.779Z,91.97
2018-12-23T01:58:20.038Z,92.65
2018-12-23T02:00:49.264Z,92.97
2018-12-23T02:03:18.711Z,92.82
2018-12-23T02:05:48.013Z,93.61
2018-12-23T02:08:18.312Z,93.49
2018-12-23T02:10:47.560Z,94.05
2018-12-23T02:14:41.331Z,93.16
2018-12-23T02:17:10.571Z,93.06
2018-12-23T02:19:39.856Z,91.66
2018-12-23T02:22:09.230Z,91.59
2018-12-23T02:24:38.572Z,91.56
2018-12-23T02:27:07.906Z,91.11
2018-12-23T02:29:37.128Z,91.68
2018-12-23T02:32:06.379Z,91.73
2018-12-23T02:34:35.704Z,91.32
2018-12-23T02:37:05.096Z,90.79
2018-12-23T02:39:34.474Z,90.73
2018-12-23T02:42:04.046Z,89.99
2018-12-23T02:44:33.376Z,89.86
2018-12-23T02:47:02.685Z,90.37
2018-12-23T02:49:32.006Z,90.68
2018-12-23T02:52:01.493Z,90.71
2018-12-23T02:54:30.802Z,89.88
2018-12-23T02:57:00.084Z,89.97
2018-12-23T02:59:29.348Z,89.99
2018-12-23T03:01:58.631Z,89.76
2018-12-23T03:04:27.885Z,90.35
2018-12-23T03:06:57.150Z,90.63
2018-12-23T03:09:26.435Z,90.16
2018-12-23T03:11:55.778Z,91.00
2018-12-23T03:14:25.182Z,91.15
2018-12-23T03:16:54.544Z,91.28
2018-12-23T03:19:23.984Z,91.52
2018-12-23T03:21:53.375Z,91.18
2018-12-23T03:24:22.644Z,91.04
2018-12-23T03:26:52.947Z,91.01
2018-12-23T03:29:22.309Z,91.36
2018-12-23T03:31:51.666Z,90.30
2018-12-23T03:34:21.130Z,90.62
2018-12-23T03:36:50.495Z,91.25
2018-12-23T03:39:19.804Z,91.52
2018-12-23T03:41:49.283Z,91.25
2018-12-23T03:44:18.645Z,91.34
2018-12-23T03:46:48.013Z,91.63
2018-12-23T03:49:17.376Z,91.83
2018-12-23T03:51:46.958Z,92.42
2018-12-23T03:54:16.233Z,92.97
2018-12-23T03:56:45.519Z,92.81
2018-12-23T03:59:14.823Z,92.97
2018-12-23T04:01:44.082Z,93.30
2018-12-23T04:04:13.451Z,93.11
2018-12-23T04:06:42.708Z,93.88
2018-12-23T04:09:12.002Z,93.81
2018-12-23T04:11:41.452Z,94.28
2018-12-23T04:14:10.760Z,94.83
2018-12-23T04:16:40.028Z,94.86
2018-12-23T04:19:09.372Z,95.95
2018-12-23T04:21:38.604Z,96.37
2018-12-23T04:24:07.831Z,96.46
2018-12-23T04:26:37.130Z,97.07
2018-12-23T04:29:06.503Z,97.46
2018-12-23T04:31:36.893Z,98.05
2018-12-23T04:34:06.126Z,98.36
2018-12-23T04:36:35.348Z,98.18
2018-12-23T04:39:06.686Z,98.93
2018-12-23T04:41:35.918Z,99.13
2018-12-23T04:44:05.224Z,98.92
2018-12-23T04:46:34.498Z,99.08
2018-12-23T04:49:03.856Z,98.63
2018-12-23T04:51:33.151Z,98.48
2018-12-23T04:54:02.400Z,98.64
2018-12-23T04:56:31.709Z,98.19
2018-12-23T04:59:00.946Z,97.91
2018-12-23T05:01:30.230Z,97.02
2018-12-23T05:03:59.508Z,96.68
2018-12-23T05:06:28.828Z,97.01
2018-12-23T05:08:58.084Z,96.35
2018-12-23T05:11:27.328Z,96.76
2018-12-23T05:13:56.586Z,96.03
2018-12-23T05:16:25.888Z,96.30
2018-12-23T05:18:55.179Z,96.10
2018-12-23T05:21:24.717Z,95.93
2018-12-23T05:23:53.993Z,97.06
2018-12-23T05:26:23.296Z,96.63
2018-12-23T05:28:52.628Z,96.30
2018-12-23T05:31:21.949Z,96.06
2018-12-23T05:33:51.317Z,96.42
2018-12-23T05:36:20.630Z,96.19
2018-12-23T05:38:49.931Z,96.03
2018-12-23T05:41:19.262Z,96.89
2018-12-23T05:43:48.539Z,97.41
2018-12-23T05:46:17.858Z,96.74
2018-12-23T05:48:47.257Z,96.95
2018-12-23T05:51:16.618Z,97.43
2018-12-23T05:53:45.913Z,97.23
2018-12-23T05:56:15.240Z,97.18
2018-12-23T05:58:44.555Z,97.37
2018-12-23T06:01:13.854Z,96.05
2018-12-23T06:03:43.111Z,95.33
2018-12-23T06:06:12.381Z,96.16
2018-12-23T06:08:41.653Z,96.01
2018-12-23T06:11:10.945Z,96.17
2018-12-23T06:13:40.212Z,96.08
2018-12-23T06:16:09.567Z,96.07
2018-12-23T06:18:38.830Z,95.97
2018-12-23T06:21:08.171Z,95.65
2018-12-23T06:23:37.516Z,95.33
2018-12-23T06:26:06.801Z,95.90
2018-12-23T06:28:36.044Z,96.75
2018-12-23T06:31:05.322Z,95.92
2018-12-23T06:33:36.239Z,95.67
2018-12-23T06:36:05.627Z,95.18
2018-12-23T06:38:34.888Z,93.84
2018-12-23T06:41:04.244Z,94.14
2018-12-23T06:43:33.511Z,93.81
2018-12-23T06:46:02.784Z,93.85
2018-12-23T06:48:32.085Z,94.36
2018-12-23T06:51:01.396Z,95.92
2018-12-23T06:53:30.741Z,97.07
2018-12-23T06:55:59.998Z,98.97
2018-12-23T06:58:29.294Z,100.00
2018-12-23T07:00:58.672Z,100.00
2018-12-23T07:03:28.001Z,100.00
2018-12-23T07:05:57.257Z,100.00
2018-12-23T07:08:26.581Z,100.00
2018-12-23T07:10:55.864Z,100.00
2018-12-23T07:13:25.198Z,100.00
2018-12-23T07:15:54.598Z,100.00
2018-12-23T07:18:23.947Z,100.00
2018-12-23T07:20:55.292Z,100.00
2018-12-23T07:23:24.659Z,100.00
2018-12-23T07:25:54.025Z,100.00
2018-12-23T07:28:23.354Z,100.00
2018-12-23T07:30:52.668Z,100.00
2018-12-23T07:33:22.024Z,100.00
2018-12-23T07:35:51.315Z,100.00
2018-12-23T07:38:20.591Z,100.00
2018-12-23T07:40:49.962Z,100.00
2018-12-23T07:43:19.244Z,100.00
2018-12-23T07:45:48.584Z,100.00
2018-12-23T07:48:17.851Z,100.00
2018-12-23T07:50:47.103Z,100.00
2018-12-23T07:53:16.372Z,100.00
2018-12-23T07:55:45.688Z,100.00
2018-12-23T07:58:15.222Z,100.00
2018-12-23T08:00:44.557Z,100.00
2018-12-23T08:03:13.939Z,100.00
2018-12-23T08:05:43.225Z,100.00
2018-12-23T08:08:12.473Z,100.00
2018-12-23T08:10:41.751Z,100.00
2018-12-23T08:13:10.986Z,100.00
2018-12-23T08:15:40.286Z,100.00
2018-12-23T08:18:09.700Z,100.00
2018-12-23T08:20:39.147Z,99.21
2018-12-23T08:23:08.525Z,98.51
2018-12-23T08:25:37.785Z,98.78
2018-12-23T08:28:07.137Z,98.44
2018-12-23T08:30:36.397Z,97.77
2018-12-23T08:33:05.724Z,97.34
2018-12-23T08:35:35.101Z,97.00
2018-12-23T08:38:04.410Z,96.42
2018-12-23T08:40:33.711Z,95.48
2018-12-23T08:43:02.977Z,95.54
2018-12-23T08:45:32.349Z,95.23
2018-12-23T08:48:01.677Z,94.45
2018-12-23T08:50:30.948Z,93.45
2018-12-23T08:53:00.347Z,91.79
2018-12-23T08:55:29.651Z,92.27
2018-12-23T08:58:00.011Z,92.04
2018-12-23T09:00:29.356Z,91.37
2018-12-23T09:02:58.672Z,91.28
2018-12-23T09:05:27.982Z,90.67
2018-12-23T09:07:57.329Z,90.09
2018-12-23T09:10:26.685Z,89.87
2018-12-23T09:12:56.002Z,88.44
2018-12-23T09:15:25.287Z,88.83
2018-12-23T09:17:54.592Z,90.43
2018-12-23T09:20:23.848Z,87.46
2018-12-23T09:22:53.197Z,87.83
2018-12-23T09:25:22.525Z,88.36
2018-12-23T09:27:51.793Z,88.35
2018-12-23T09:30:21.016Z,89.41
2018-12-23T09:32:50.186Z,88.36
2018-12-23T09:35:19.550Z,88.44
2018-12-23T09:37:48.894Z,87.31
2018-12-23T09:40:18.188Z,89.03
2018-12-23T09:42:47.500Z,87.43
2018-12-23T09:45:16.813Z,86.76
2018-12-23T09:47:46.158Z,87.15
2018-12-23T09:50:15.427Z,86.18
2018-12-23T09:52:44.930Z,85.41
2018-12-23T09:55:14.312Z,85.46
2018-12-23T09:57:43.729Z,86.93
2018-12-23T10:00:13.334Z,84.47
2018-12-23T10:02:42.657Z,84.12
2018-12-23T10:05:12.008Z,84.34
2018-12-23T10:07:41.313Z,83.10
2018-12-23T10:10:11.619Z,83.99
2018-12-23T10:12:40.977Z,82.56
2018-12-23T10:15:10.259Z,83.20
2018-12-23T10:17:39.574Z,83.83
2018-12-23T10:20:09.201Z,83.61
2018-12-23T10:22:38.635Z,84.24
2018-12-23T10:25:08.205Z,83.39
2018-12-23T10:27:37.543Z,82.67
2018-12-23T10:30:07.264Z,82.70
2018-12-23T10:32:36.663Z,82.21
2018-12-23T10:35:06.059Z,81.51
2018-12-23T10:37:35.365Z,81.68
2018-12-23T10:40:05.225Z,81.52
2018-12-23T10:42:34.483Z,81.50
2018-12-23T10:45:04.032Z,81.34
2018-12-23T10:47:38.819Z,81.82
2018-12-23T10:50:08.220Z,81.98
2018-12-23T10:52:37.523Z,82.38
2018-12-23T10:55:07.116Z,81.95
2018-12-23T10:57:36.460Z,81.34
2018-12-23T11:00:09.187Z,80.20
2018-12-23T11:02:38.697Z,80.09
2018-12-23T11:05:10.256Z,80.48
2018-12-23T11:07:39.697Z,79.94
2018-12-23T11:10:09.894Z,83.58
2018-12-23T11:12:39.270Z,79.58
2018-12-23T11:15:08.931Z,80.41
2018-12-23T11:17:38.401Z,82.29
2018-12-23T11:20:09.461Z,81.50
2018-12-23T11:22:39.629Z,83.17
2018-12-23T11:25:09.213Z,83.53
2018-12-23T11:27:38.544Z,84.18
2018-12-23T11:30:09.251Z,83.86
2018-12-23T11:32:38.619Z,84.24
2018-12-23T11:35:09.155Z,85.75
2018-12-23T11:37:39.523Z,86.83
2018-12-23T11:40:09.430Z,86.24
2018-12-23T11:42:38.744Z,86.54
2018-12-23T11:45:08.433Z,88.25
2018-12-23T11:47:37.992Z,87.90
2018-12-23T11:50:07.413Z,89.58
2018-12-23T11:52:37.146Z,90.74
2018-12-23T11:55:06.703Z,90.64
2018-12-23T11:57:36.105Z,91.46
2018-12-23T12:00:06.227Z,90.52
2018-12-23T12:02:35.616Z,91.17
2018-12-23T12:05:05.383Z,91.47
2018-12-23T12:07:34.776Z,91.25
2018-12-23T12:10:05.037Z,90.45
2018-12-23T12:12:34.592Z,90.36
2018-12-23T12:15:04.355Z,92.65
2018-12-23T12:17:33.701Z,92.00
2018-12-23T12:20:03.065Z,91.81
2018-12-23T12:22:32.368Z,92.12
2018-12-23T12:25:01.788Z,92.54
2018-12-23T12:27:31.211Z,91.75
2018-12-23T12:30:00.610Z,90.39
2018-12-23T12:32:29.899Z,89.89
2018-12-23T12:34:59.309Z,87.97
2018-12-23T12:37:28.958Z,89.40
2018-12-23T12:39:58.376Z,89.19
2018-12-23T12:42:27.780Z,88.73
2018-12-23T12:44:57.182Z,89.56
2018-12-23T12:47:28.589Z,90.00
2018-12-23T12:49:57.989Z,91.04
2018-12-23T12:52:27.295Z,91.16
2018-12-23T12:54:56.762Z,91.90
2018-12-23T12:57:26.114Z,92.94
2018-12-23T12:59:55.612Z,93.26
2018-12-23T13:02:25.019Z,93.52
2018-12-23T13:04:54.312Z,94.82
2018-12-23T13:07:23.737Z,96.47
2018-12-23T13:09:53.154Z,97.08
2018-12-23T13:12:22.468Z,98.01
2018-12-23T13:14:52.884Z,97.75
2018-12-23T13:17:22.211Z,98.92
2018-12-23T13:19:51.516Z,99.20
2018-12-23T13:22:20.880Z,99.90
2018-12-23T13:24:50.425Z,100.00
2018-12-23T13:27:19.784Z,100.00
2018-12-23T13:29:49.366Z,100.00
2018-12-23T13:32:18.791Z,100.00
2018-12-23T13:34:48.097Z,100.00
2018-12-23T13:37:17.454Z,100.00
2018-12-23T13:39:46.974Z,100.00
2018-12-23T13:42:30.071Z,100.00
2018-12-23T13:48:54.981Z,97.61
2018-12-23T13:52:11.428Z,100.00
2018-12-23T13:55:19.044Z,100.00
2018-12-23T13:58:31.964Z,100.00
2018-12-23T14:01:33.029Z,100.00
2018-12-23T14:05:00.928Z,100.00
2018-12-23T14:08:05.381Z,100.00
2018-12-23T14:11:19.701Z,100.00
2018-12-23T14:14:01.844Z,100.00
2018-12-23T14:16:51.935Z,100.00
2018-12-23T14:19:34.717Z,100.00
2018-12-23T14:22:05.603Z,100.00
2018-12-23T14:24:55.502Z,100.00
2018-12-23T14:27:45.439Z,100.00
2018-12-23T14:30:27.758Z,100.00
2018-12-23T14:33:17.661Z,100.00
2018-12-23T14:35:59.826Z,100.00
2018-12-23T14:38:49.695Z,100.00
2018-12-23T14:41:20.483Z,100.00
2018-12-23T14:43:51.632Z,100.00
2018-12-23T14:46:22.961Z,100.00
2018-12-23T14:48:54.157Z,100.00
2018-12-23T14:51:25.387Z,100.00
2018-12-23T14:53:56.600Z,100.00
2018-12-23T14:56:27.705Z,100.00
2018-12-23T14:58:58.851Z,100.00
2018-12-23T15:01:29.933Z,100.00
2018-12-23T15:04:01.019Z,100.00
2018-12-23T15:06:31.902Z,100.00
2018-12-23T15:09:02.735Z,100.00
2018-12-23T15:11:33.763Z,100.00
2018-12-23T15:14:04.701Z,100.00
2018-12-23T15:16:35.643Z,100.00
2018-12-23T15:19:07.696Z,100.00
2018-12-23T15:21:38.500Z,100.00
2018-12-23T15:24:09.331Z,100.00
2018-12-23T15:26:40.162Z,100.00
2018-12-23T15:29:11.133Z,100.00
2018-12-23T15:31:41.977Z,100.00
2018-12-23T15:34:12.775Z,100.00
2018-12-23T15:36:43.725Z,100.00
2018-12-23T15:39:14.468Z,100.00
2018-12-23T15:41:45.277Z,100.00
2018-12-23T15:44:16.127Z,100.00
2018-12-23T15:46:46.984Z,100.00
2018-12-23T15:49:17.767Z,100.00
2018-12-23T15:51:48.618Z,100.00
2018-12-23T15:54:19.472Z,100.00
2018-12-23T15:56:50.197Z,100.00
2018-12-23T15:59:21.103Z,100.00
2018-12-23T16:01:52.047Z,100.00
2018-12-23T16:04:22.907Z,100.00
2018-12-23T16:06:53.783Z,100.00
2018-12-23T16:09:24.606Z,100.00
2018-12-23T16:11:55.459Z,100.00
2018-12-23T16:14:26.286Z,100.00
2018-12-23T16:16:57.193Z,100.00
2018-12-23T16:19:28.281Z,100.00
2018-12-23T16:21:59.080Z,100.00
2018-12-23T16:24:30.170Z,100.00
2018-12-23T16:27:01.128Z,100.00
2018-12-23T16:29:32.068Z,100.00
2018-12-23T16:32:03.049Z,100.00
2018-12-23T16:34:33.995Z,100.00
2018-12-23T16:37:04.881Z,100.00
2018-12-23T16:39:35.747Z,100.00
2018-12-23T16:42:06.150Z,100.00
2018-12-23T16:44:36.875Z,100.00
2018-12-23T16:47:07.732Z,100.00
2018-12-23T16:49:38.510Z,100.00
2018-12-23T16:52:09.376Z,100.00
2018-12-23T16:54:40.287Z,100.00
2018-12-23T16:57:11.044Z,100.00
2018-12-23T16:59:42.144Z,100.00
2018-12-23T17:02:13.009Z,100.00
2018-12-23T17:04:43.942Z,100.00
2018-12-23T17:07:14.868Z,100.00
2018-12-23T17:09:45.566Z,100.00
2018-12-23T17:12:16.299Z,100.00
2018-12-23T17:14:47.015Z,100.00
2018-12-23T17:17:17.932Z,100.00
2018-12-23T17:19:48.645Z,100.00
2018-12-23T17:22:19.440Z,100.00
2018-12-23T17:24:50.149Z,100.00
2018-12-23T17:27:20.984Z,100.00
2018-12-23T17:29:51.852Z,100.00
2018-12-23T17:32:22.758Z,100.00
2018-12-23T17:34:53.559Z,100.00
2018-12-23T17:37:24.288Z,100.00
2018-12-23T17:39:55.183Z,100.00
2018-12-23T17:42:26.087Z,100.00
2018-12-23T17:44:56.927Z,100.00
2018-12-23T17:47:27.907Z,100.00
2018-12-23T17:49:58.730Z,100.00
2018-12-23T17:52:29.710Z,100.00
2018-12-23T17:55:00.422Z,100.00
2018-12-23T17:57:30.710Z,100.00
2018-12-23T18:00:01.599Z,100.00
2018-12-23T18:02:32.380Z,100.00
2018-12-23T18:05:03.195Z,100.00
2018-12-23T18:07:33.972Z,100.00
2018-12-23T18:10:04.926Z,100.00
2018-12-23T18:12:35.922Z,100.00
2018-12-23T18:15:06.974Z,100.00
2018-12-23T18:17:37.924Z,100.00
2018-12-23T18:20:09.029Z,100.00
2018-12-23T18:22:39.924Z,100.00
2018-12-23T18:25:10.728Z,100.00
2018-12-23T18:27:41.754Z,100.00
2018-12-23T18:30:12.581Z,100.00
2018-12-23T18:32:43.383Z,100.00
2018-12-23T18:35:14.169Z,100.00
2018-12-23T18:37:44.926Z,100.00
2018-12-23T18:40:15.876Z,100.00
2018-12-23T18:42:46.666Z,100.00
2018-12-23T18:45:17.429Z,100.00
2018-12-23T18:47:48.266Z,100.00
2018-12-23T18:50:19.313Z,100.00
2018-12-23T18:52:50.049Z,100.00
2018-12-23T18:55:20.988Z,100.00
2018-12-23T18:57:52.278Z,100.00
2018-12-23T19:00:23.264Z,100.00
2018-12-23T19:02:59.571Z,100.00
2018-12-23T19:05:30.440Z,100.00
2018-12-23T19:08:11.197Z,100.00
2018-12-23T19:11:36.280Z,100.00
2018-12-23T19:14:39.563Z,100.00
2018-12-23T19:18:12.391Z,100.00
2018-12-23T19:21:30.682Z,100.00
2018-12-23T19:24:45.892Z,100.00
2018-12-23T19:28:23.223Z,100.00
2018-12-23T19:31:51.072Z,100.00
2018-12-23T19:35:10.502Z,100.00
2018-12-23T19:38:42.363Z,100.00
2018-12-23T19:42:07.297Z,100.00
2018-12-23T19:45:56.089Z,100.00
2018-12-23T19:49:25.892Z,100.00
2018-12-23T19:53:08.058Z,100.00
2018-12-23T19:56:36.198Z,100.00
2018-12-23T19:59:58.194Z,100.00
2018-12-23T20:03:10.067Z,100.00
2018-12-23T20:06:31.859Z,100.00
2018-12-23T20:10:01.893Z,100.00
2018-12-23T20:13:49.947Z,100.00
2018-12-23T20:17:01.433Z,100.00
2018-12-23T20:21:02.660Z,100.00
2018-12-23T20:24:32.588Z,100.00
2018-12-23T20:27:40.541Z,100.00
2018-12-23T20:31:32.186Z,100.00
2018-12-23T20:34:58.942Z,100.00
2018-12-23T20:37:53.306Z,100.00
2018-12-23T20:41:07.643Z,100.00
2018-12-23T20:45:00.856Z,100.00
2018-12-23T20:48:11.407Z,100.00
2018-12-23T20:51:31.761Z,100.00
2018-12-23T20:54:47.834Z,100.00
2018-12-23T20:58:23.181Z,100.00
2018-12-23T21:01:51.960Z,100.00
2018-12-23T21:04:59.615Z,100.00
2018-12-23T21:08:53.840Z,100.00
2018-12-23T21:12:20.293Z,100.00
2018-12-23T21:15:58.654Z,100.00
2018-12-23T21:19:19.675Z,100.00
2018-12-23T21:22:47.516Z,100.00
2018-12-23T21:26:23.510Z,100.00
2018-12-23T21:29:51.964Z,100.00
2018-12-23T21:33:08.550Z,100.00
2018-12-23T21:37:05.919Z,100.00
2018-12-23T21:40:51.721Z,100.00
2018-12-23T21:44:27.320Z,100.00
2018-12-23T21:47:52.672Z,100.00
2018-12-23T21:51:10.138Z,100.00
2018-12-23T21:55:05.093Z,100.00
2018-12-23T21:58:21.421Z,100.00
2018-12-23T22:01:26.968Z,100.00
2018-12-23T22:04:40.798Z,100.00
2018-12-23T22:08:21.977Z,100.00
2018-12-23T22:11:34.338Z,100.00
2018-12-23T22:14:05.466Z,100.00
2018-12-23T22:16:39.992Z,100.00
2018-12-23T22:19:12.173Z,100.00
2018-12-23T22:21:48.933Z,100.00
2018-12-23T22:24:19.698Z,100.00
2018-12-23T22:26:53.715Z,100.00
2018-12-23T22:29:35.043Z,100.00
2018-12-23T22:32:06.634Z,100.00
2018-12-23T22:34:38.013Z,100.00
2018-12-23T22:37:14.774Z,100.00
2018-12-23T22:39:46.940Z,100.00
2018-12-23T22:42:20.603Z,100.00
2018-12-23T22:44:51.771Z,100.00
2018-12-23T22:47:23.986Z,100.00
2018-12-23T22:49:58.198Z,100.00
2018-12-23T22:52:29.255Z,100.00
2018-12-23T22:55:00.519Z,100.00
2018-12-23T22:57:34.861Z,100.00
2018-12-23T23:00:06.930Z,100.00
2018-12-23T23:02:38.279Z,100.00
2018-12-23T23:05:11.709Z,100.00
2018-12-23T23:07:42.884Z,100.00
2018-12-23T23:10:13.841Z,100.00
2018-12-23T23:12:45.586Z,100.00
2018-12-23T23:15:17.473Z,100.00
2018-12-23T23:17:50.362Z,100.00
2018-12-23T23:20:21.377Z,100.00
2018-12-23T23:22:53.988Z,100.00
2018-12-23T23:25:26.969Z,100.00
2018-12-23T23:27:57.869Z,100.00
2018-12-23T23:30:29.167Z,100.00
2018-12-23T23:33:00.555Z,100.00
2018-12-23T23:35:31.627Z,100.00
2018-12-23T23:38:02.931Z,100.00
2018-12-23T23:40:35.063Z,100.00
2018-12-23T23:43:06.910Z,100.00
2018-12-23T23:45:37.899Z,100.00
2018-12-23T23:48:09.017Z,100.00
2018-12-23T23:50:41.345Z,100.00
2018-12-23T23:53:12.311Z,100.00
2018-12-23T23:55:43.726Z,100.00
2018-12-23T23:58:14.677Z,100.00
